sensor_id;sensor_type;location;lat;lon;timestamp;pressure;altitude;pressure_sealevel;temperature;humidity
11542;BME280;5827;49.482;7.716;2022-09-14T00:01:42;98015.34;;;19.64;100.00
11542;BME280;5827;49.482;7.716;2022-09-14T00:03:44;98012.16;;;19.62;100.00
11542;BME280;5827;49.482;7.716;2022-09-14T00:05:45;98001.88;;;19.59;100.00
11542;BME280;5827;49.482;7.716;2022-09-14T00:07:48;97991.81;;;19.51;100.00
11542;BME280;5827;49.482;7.716;2022-09-14T00:09:50;97980.66;;;19.61;100.00
11542;BME280;5827;49.482;7.716;2022-09-14T00:11:52;97981.44;;;19.70;100.00
11542;BME280;5827;49.482;7.716;2022-09-14T00:13:55;97969.13;;;19.64;100.00
11542;BME280;5827;49.482;7.716;2022-09-14T00:16:02;97961.47;;;19.49;100.00
11542;BME280;5827;49.482;7.716;2022-09-14T00:18:05;97956.66;;;19.37;100.00
11542;BME280;5827;49.482;7.716;2022-09-14T00:20:08;97954.75;;;19.38;100.00
11542;BME280;5827;49.482;7.716;2022-09-14T00:22:09;97956.81;;;19.41;100.00
11542;BME280;5827;49.482;7.716;2022-09-14T00:24:12;97953.78;;;19.42;100.00
11542;BME280;5827;49.482;7.716;2022-09-14T00:26:15;97949.16;;;19.43;100.00
11542;BME280;5827;49.482;7.716;2022-09-14T00:28:17;97938.94;;;19.40;100.00
11542;BME280;5827;49.482;7.716;2022-09-14T00:30:20;97944.53;;;19.43;100.00
11542;BME280;5827;49.482;7.716;2022-09-14T00:32:22;97940.19;;;19.51;100.00
11542;BME280;5827;49.482;7.716;2022-09-14T00:34:24;97937.81;;;19.49;100.00
11542;BME280;5827;49.482;7.716;2022-09-14T00:36:26;97944.19;;;19.53;100.00
11542;BME280;5827;49.482;7.716;2022-09-14T00:38:28;97939.72;;;19.58;100.00
11542;BME280;5827;49.482;7.716;2022-09-14T00:40:31;97942.75;;;19.65;100.00
11542;BME280;5827;49.482;7.716;2022-09-14T00:42:33;97937.81;;;19.67;100.00
11542;BME280;5827;49.482;7.716;2022-09-14T00:44:56;97932.84;;;19.60;100.00
11542;BME280;5827;49.482;7.716;2022-09-14T00:47:00;97943.41;;;19.53;100.00
11542;BME280;5827;49.482;7.716;2022-09-14T00:49:05;97932.03;;;19.42;100.00
11542;BME280;5827;49.482;7.716;2022-09-14T00:51:08;97923.59;;;19.44;100.00
11542;BME280;5827;49.482;7.716;2022-09-14T00:53:09;97924.06;;;19.46;100.00
11542;BME280;5827;49.482;7.716;2022-09-14T00:55:13;97921.84;;;19.39;100.00
11542;BME280;5827;49.482;7.716;2022-09-14T00:57:17;97913.53;;;19.44;100.00
11542;BME280;5827;49.482;7.716;2022-09-14T00:59:23;97913.19;;;19.46;100.00
11542;BME280;5827;49.482;7.716;2022-09-14T01:01:26;97906.16;;;19.45;100.00
11542;BME280;5827;49.482;7.716;2022-09-14T01:03:28;97904.56;;;19.52;100.00
11542;BME280;5827;49.482;7.716;2022-09-14T01:05:40;97901.34;;;19.50;100.00
11542;BME280;5827;49.482;7.716;2022-09-14T01:07:55;97893.38;;;19.37;100.00
11542;BME280;5827;49.482;7.716;2022-09-14T01:10:07;97882.84;;;19.35;100.00
11542;BME280;5827;49.482;7.716;2022-09-14T01:12:20;97883.81;;;19.39;100.00
11542;BME280;5827;49.482;7.716;2022-09-14T01:14:31;97877.41;;;19.44;100.00
11542;BME280;5827;49.482;7.716;2022-09-14T01:16:46;97877.66;;;19.60;100.00
11542;BME280;5827;49.482;7.716;2022-09-14T01:18:55;97874.69;;;19.61;100.00
11542;BME280;5827;49.482;7.716;2022-09-14T01:20:59;97876.28;;;19.62;100.00
11542;BME280;5827;49.482;7.716;2022-09-14T01:23:07;97878.81;;;19.59;100.00
11542;BME280;5827;49.482;7.716;2022-09-14T01:25:35;97886.16;;;19.58;100.00
11542;BME280;5827;49.482;7.716;2022-09-14T01:27:40;97906.97;;;19.63;100.00
11542;BME280;5827;49.482;7.716;2022-09-14T01:29:46;97914.91;;;19.59;100.00
11542;BME280;5827;49.482;7.716;2022-09-14T01:31:52;97909.34;;;19.55;100.00
11542;BME280;5827;49.482;7.716;2022-09-14T01:34:00;97891.91;;;19.65;100.00
11542;BME280;5827;49.482;7.716;2022-09-14T01:36:06;97878.00;;;19.58;100.00
11542;BME280;5827;49.482;7.716;2022-09-14T01:38:18;97872.25;;;19.68;100.00
11542;BME280;5827;49.482;7.716;2022-09-14T01:40:24;97870.97;;;19.57;100.00
11542;BME280;5827;49.482;7.716;2022-09-14T01:42:28;97872.59;;;19.41;100.00
11542;BME280;5827;49.482;7.716;2022-09-14T01:44:34;97878.84;;;19.41;100.00
11542;BME280;5827;49.482;7.716;2022-09-14T01:46:40;97881.25;;;19.34;100.00
11542;BME280;5827;49.482;7.716;2022-09-14T01:48:47;97862.72;;;19.36;100.00
11542;BME280;5827;49.482;7.716;2022-09-14T01:50:53;97851.03;;;19.44;100.00
11542;BME280;5827;49.482;7.716;2022-09-14T01:52:59;97841.13;;;19.40;100.00
11542;BME280;5827;49.482;7.716;2022-09-14T01:55:06;97834.28;;;19.34;100.00
11542;BME280;5827;49.482;7.716;2022-09-14T01:57:14;97847.22;;;19.37;100.00
11542;BME280;5827;49.482;7.716;2022-09-14T01:59:20;97856.16;;;19.37;100.00
11542;BME280;5827;49.482;7.716;2022-09-14T02:01:27;97857.78;;;19.29;100.00
11542;BME280;5827;49.482;7.716;2022-09-14T02:03:35;97860.31;;;19.35;100.00
11542;BME280;5827;49.482;7.716;2022-09-14T02:05:41;97867.84;;;19.29;100.00
11542;BME280;5827;49.482;7.716;2022-09-14T02:07:46;97874.69;;;19.44;100.00
11542;BME280;5827;49.482;7.716;2022-09-14T02:09:48;97873.44;;;19.24;100.00
11542;BME280;5827;49.482;7.716;2022-09-14T02:11:52;97886.03;;;19.28;100.00
11542;BME280;5827;49.482;7.716;2022-09-14T02:13:54;97889.59;;;19.03;100.00
11542;BME280;5827;49.482;7.716;2022-09-14T02:15:56;97888.31;;;18.92;100.00
11542;BME280;5827;49.482;7.716;2022-09-14T02:17:59;97889.25;;;18.96;100.00
11542;BME280;5827;49.482;7.716;2022-09-14T02:20:03;97883.38;;;19.11;100.00
11542;BME280;5827;49.482;7.716;2022-09-14T02:22:05;97873.47;;;19.15;100.00
11542;BME280;5827;49.482;7.716;2022-09-14T02:24:07;97889.25;;;19.22;100.00
11542;BME280;5827;49.482;7.716;2022-09-14T02:26:10;97877.75;;;19.25;100.00
11542;BME280;5827;49.482;7.716;2022-09-14T02:28:12;97884.94;;;19.29;100.00
11542;BME280;5827;49.482;7.716;2022-09-14T02:30:14;97896.13;;;19.28;100.00
11542;BME280;5827;49.482;7.716;2022-09-14T02:32:21;97902.34;;;19.28;100.00
11542;BME280;5827;49.482;7.716;2022-09-14T02:34:33;97909.06;;;19.31;100.00
11542;BME280;5827;49.482;7.716;2022-09-14T02:36:45;97898.03;;;19.27;100.00
11542;BME280;5827;49.482;7.716;2022-09-14T02:38:51;97886.53;;;19.30;100.00
11542;BME280;5827;49.482;7.716;2022-09-14T02:41:02;97883.66;;;19.36;100.00
11542;BME280;5827;49.482;7.716;2022-09-14T02:43:14;97887.16;;;19.36;100.00
11542;BME280;5827;49.482;7.716;2022-09-14T02:45:23;97899.16;;;19.26;100.00
11542;BME280;5827;49.482;7.716;2022-09-14T02:47:30;97887.50;;;19.35;100.00
11542;BME280;5827;49.482;7.716;2022-09-14T02:49:39;97882.69;;;19.32;100.00
11542;BME280;5827;49.482;7.716;2022-09-14T02:51:53;97873.41;;;19.33;100.00
11542;BME280;5827;49.482;7.716;2022-09-14T02:54:03;97854.22;;;19.38;100.00
11542;BME280;5827;49.482;7.716;2022-09-14T02:56:06;97843.38;;;19.38;100.00
11542;BME280;5827;49.482;7.716;2022-09-14T02:58:10;97835.22;;;19.38;100.00
11542;BME280;5827;49.482;7.716;2022-09-14T03:00:12;97838.88;;;19.42;100.00
11542;BME280;5827;49.482;7.716;2022-09-14T03:02:14;97839.38;;;19.44;100.00
11542;BME280;5827;49.482;7.716;2022-09-14T03:04:15;97831.84;;;19.49;100.00
11542;BME280;5827;49.482;7.716;2022-09-14T03:06:18;97819.53;;;19.52;100.00
11542;BME280;5827;49.482;7.716;2022-09-14T03:08:20;97829.28;;;19.53;100.00
11542;BME280;5827;49.482;7.716;2022-09-14T03:10:21;97820.16;;;19.58;100.00
11542;BME280;5827;49.482;7.716;2022-09-14T03:12:23;97813.13;;;19.57;100.00
11542;BME280;5827;49.482;7.716;2022-09-14T03:14:24;97804.63;;;19.58;100.00
11542;BME280;5827;49.482;7.716;2022-09-14T03:16:26;97805.28;;;19.55;100.00
11542;BME280;5827;49.482;7.716;2022-09-14T03:18:27;97815.53;;;19.49;100.00
11542;BME280;5827;49.482;7.716;2022-09-14T03:20:31;97813.94;;;19.48;100.00
11542;BME280;5827;49.482;7.716;2022-09-14T03:22:34;97817.63;;;19.44;100.00
11542;BME280;5827;49.482;7.716;2022-09-14T03:24:36;97809.47;;;19.52;100.00
11542;BME280;5827;49.482;7.716;2022-09-14T03:26:37;97812.47;;;19.51;100.00
11542;BME280;5827;49.482;7.716;2022-09-14T03:28:39;97819.53;;;19.52;100.00
11542;BME280;5827;49.482;7.716;2022-09-14T03:30:40;97818.72;;;19.51;100.00
11542;BME280;5827;49.482;7.716;2022-09-14T03:32:42;97813.13;;;19.57;100.00
11542;BME280;5827;49.482;7.716;2022-09-14T03:34:43;97813.63;;;19.50;100.00
11542;BME280;5827;49.482;7.716;2022-09-14T03:36:45;97804.50;;;19.46;100.00
11542;BME280;5827;49.482;7.716;2022-09-14T03:38:49;97786.63;;;19.45;100.00
11542;BME280;5827;49.482;7.716;2022-09-14T03:40:51;97784.09;;;19.40;100.00
11542;BME280;5827;49.482;7.716;2022-09-14T03:42:53;97787.44;;;19.37;100.00
11542;BME280;5827;49.482;7.716;2022-09-14T03:44:54;97780.28;;;19.32;100.00
11542;BME280;5827;49.482;7.716;2022-09-14T03:46:56;97777.38;;;19.37;100.00
11542;BME280;5827;49.482;7.716;2022-09-14T03:48:57;97766.81;;;19.44;100.00
11542;BME280;5827;49.482;7.716;2022-09-14T03:50:59;97775.56;;;19.12;100.00
11542;BME280;5827;49.482;7.716;2022-09-14T03:53:01;97791.50;;;19.13;100.00
11542;BME280;5827;49.482;7.716;2022-09-14T03:55:07;97792.09;;;19.27;100.00
11542;BME280;5827;49.482;7.716;2022-09-14T03:57:09;97820.84;;;19.28;100.00
11542;BME280;5827;49.482;7.716;2022-09-14T03:59:10;97834.31;;;19.25;100.00
11542;BME280;5827;49.482;7.716;2022-09-14T04:01:14;97833.53;;;19.16;100.00
11542;BME280;5827;49.482;7.716;2022-09-14T04:03:16;97828.38;;;19.23;100.00
11542;BME280;5827;49.482;7.716;2022-09-14T04:05:18;97819.44;;;19.31;100.00
11542;BME280;5827;49.482;7.716;2022-09-14T04:07:19;97826.78;;;19.30;100.00
11542;BME280;5827;49.482;7.716;2022-09-14T04:09:20;97832.38;;;19.25;100.00
11542;BME280;5827;49.482;7.716;2022-09-14T04:11:24;97840.69;;;19.29;100.00
11542;BME280;5827;49.482;7.716;2022-09-14T04:13:26;97837.00;;;19.34;100.00
11542;BME280;5827;49.482;7.716;2022-09-14T04:15:27;97823.28;;;19.30;100.00
11542;BME280;5827;49.482;7.716;2022-09-14T04:17:29;97820.38;;;19.35;100.00
11542;BME280;5827;49.482;7.716;2022-09-14T04:19:30;97824.03;;;19.39;100.00
11542;BME280;5827;49.482;7.716;2022-09-14T04:21:32;97815.22;;;19.42;100.00
11542;BME280;5827;49.482;7.716;2022-09-14T04:23:34;97822.56;;;19.50;100.00
11542;BME280;5827;49.482;7.716;2022-09-14T04:25:35;97816.66;;;19.48;100.00
11542;BME280;5827;49.482;7.716;2022-09-14T04:27:38;97821.47;;;19.43;100.00
11542;BME280;5827;49.482;7.716;2022-09-14T04:29:39;97816.84;;;19.43;100.00
11542;BME280;5827;49.482;7.716;2022-09-14T04:31:41;97816.66;;;19.48;100.00
11542;BME280;5827;49.482;7.716;2022-09-14T04:33:42;97814.56;;;19.54;100.00
11542;BME280;5827;49.482;7.716;2022-09-14T04:35:44;97817.28;;;19.54;100.00
11542;BME280;5827;49.482;7.716;2022-09-14T04:37:45;97819.34;;;19.57;100.00
11542;BME280;5827;49.482;7.716;2022-09-14T04:39:47;97824.78;;;19.57;100.00
11542;BME280;5827;49.482;7.716;2022-09-14T04:41:48;97826.22;;;19.63;100.00
11542;BME280;5827;49.482;7.716;2022-09-14T04:43:52;97824.31;;;19.64;100.00
11542;BME280;5827;49.482;7.716;2022-09-14T04:46:00;97821.88;;;19.71;100.00
11542;BME280;5827;49.482;7.716;2022-09-14T04:48:02;97818.84;;;19.72;100.00
11542;BME280;5827;49.482;7.716;2022-09-14T04:50:05;97805.88;;;19.69;100.00
11542;BME280;5827;49.482;7.716;2022-09-14T04:52:06;97803.97;;;19.70;100.00
11542;BME280;5827;49.482;7.716;2022-09-14T04:54:08;97805.53;;;19.79;100.00
11542;BME280;5827;49.482;7.716;2022-09-14T04:56:13;97794.66;;;19.79;100.00
11542;BME280;5827;49.482;7.716;2022-09-14T04:58:15;97793.84;;;19.79;100.00
11542;BME280;5827;49.482;7.716;2022-09-14T05:00:18;97777.13;;;19.60;100.00
11542;BME280;5827;49.482;7.716;2022-09-14T05:02:20;97781.44;;;19.69;100.00
11542;BME280;5827;49.482;7.716;2022-09-14T05:04:21;97788.47;;;19.70;100.00
11542;BME280;5827;49.482;7.716;2022-09-14T05:06:24;97800.94;;;19.71;100.00
11542;BME280;5827;49.482;7.716;2022-09-14T05:08:26;97803.34;;;19.64;100.00
11542;BME280;5827;49.482;7.716;2022-09-14T05:10:28;97803.69;;;19.54;100.00
11542;BME280;5827;49.482;7.716;2022-09-14T05:12:29;97789.47;;;19.57;100.00
11542;BME280;5827;49.482;7.716;2022-09-14T05:14:31;97797.47;;;19.62;100.00
11542;BME280;5827;49.482;7.716;2022-09-14T05:16:35;97796.16;;;19.68;100.00
11542;BME280;5827;49.482;7.716;2022-09-14T05:18:37;97803.06;;;19.66;100.00
11542;BME280;5827;49.482;7.716;2022-09-14T05:20:38;97799.00;;;19.72;100.00
11542;BME280;5827;49.482;7.716;2022-09-14T05:22:40;97805.44;;;19.67;100.00
11542;BME280;5827;49.482;7.716;2022-09-14T05:24:41;97805.44;;;19.67;100.00
11542;BME280;5827;49.482;7.716;2022-09-14T05:26:44;97797.28;;;19.67;100.00
11542;BME280;5827;49.482;7.716;2022-09-14T05:28:49;97790.88;;;19.72;100.00
11542;BME280;5827;49.482;7.716;2022-09-14T05:30:51;97799.47;;;19.74;100.00
11542;BME280;5827;49.482;7.716;2022-09-14T05:32:54;97800.59;;;19.73;100.00
11542;BME280;5827;49.482;7.716;2022-09-14T05:34:56;97803.66;;;19.71;100.00
11542;BME280;5827;49.482;7.716;2022-09-14T05:36:57;97799.81;;;19.72;100.00
11542;BME280;5827;49.482;7.716;2022-09-14T05:38:59;97794.81;;;19.74;100.00
11542;BME280;5827;49.482;7.716;2022-09-14T05:41:01;97799.16;;;19.75;100.00
11542;BME280;5827;49.482;7.716;2022-09-14T05:43:02;97799.97;;;19.76;100.00
11542;BME280;5827;49.482;7.716;2022-09-14T05:45:04;97793.06;;;19.78;100.00
11542;BME280;5827;49.482;7.716;2022-09-14T05:47:06;97781.72;;;19.76;100.00
11542;BME280;5827;49.482;7.716;2022-09-14T05:49:09;97783.50;;;19.72;100.00
11542;BME280;5827;49.482;7.716;2022-09-14T05:51:11;97785.38;;;19.80;100.00
11542;BME280;5827;49.482;7.716;2022-09-14T05:53:14;97787.31;;;19.80;100.00
11542;BME280;5827;49.482;7.716;2022-09-14T05:55:16;97786.63;;;19.83;100.00
11542;BME280;5827;49.482;7.716;2022-09-14T05:57:17;97784.91;;;19.78;100.00
11542;BME280;5827;49.482;7.716;2022-09-14T05:59:19;97777.41;;;19.75;100.00
11542;BME280;5827;49.482;7.716;2022-09-14T06:01:22;97776.63;;;19.75;100.00
11542;BME280;5827;49.482;7.716;2022-09-14T06:03:24;97784.84;;;19.87;100.00
11542;BME280;5827;49.482;7.716;2022-09-14T06:05:26;97790.00;;;19.89;100.00
11542;BME280;5827;49.482;7.716;2022-09-14T06:07:28;97794.75;;;19.92;100.00
11542;BME280;5827;49.482;7.716;2022-09-14T06:09:30;97786.94;;;19.90;100.00
11542;BME280;5827;49.482;7.716;2022-09-14T06:11:33;97792.38;;;19.90;100.00
11542;BME280;5827;49.482;7.716;2022-09-14T06:13:36;97786.19;;;19.81;100.00
11542;BME280;5827;49.482;7.716;2022-09-14T06:15:37;97787.75;;;19.82;100.00
11542;BME280;5827;49.482;7.716;2022-09-14T06:17:39;97781.00;;;19.88;100.00
11542;BME280;5827;49.482;7.716;2022-09-14T06:19:40;97790.06;;;20.01;100.00
11542;BME280;5827;49.482;7.716;2022-09-14T06:21:43;97791.78;;;20.05;100.00
11542;BME280;5827;49.482;7.716;2022-09-14T06:23:45;97785.22;;;20.06;100.00
11542;BME280;5827;49.482;7.716;2022-09-14T06:25:47;97783.13;;;20.12;100.00
11542;BME280;5827;49.482;7.716;2022-09-14T06:27:52;97782.94;;;20.17;100.00
11542;BME280;5827;49.482;7.716;2022-09-14T06:29:54;97791.69;;;20.23;100.00
11542;BME280;5827;49.482;7.716;2022-09-14T06:31:55;97786.03;;;20.28;100.00
11542;BME280;5827;49.482;7.716;2022-09-14T06:33:57;97789.69;;;20.32;100.00
11542;BME280;5827;49.482;7.716;2022-09-14T06:35:59;97791.78;;;20.35;100.00
11542;BME280;5827;49.482;7.716;2022-09-14T06:38:03;97788.91;;;20.31;100.00
11542;BME280;5827;49.482;7.716;2022-09-14T06:40:05;97790.22;;;20.46;100.00
11542;BME280;5827;49.482;7.716;2022-09-14T06:42:07;97783.84;;;20.42;100.00
11542;BME280;5827;49.482;7.716;2022-09-14T06:44:09;97776.44;;;20.30;100.00
11542;BME280;5827;49.482;7.716;2022-09-14T06:46:12;97774.97;;;20.33;100.00
11542;BME280;5827;49.482;7.716;2022-09-14T06:48:14;97770.22;;;20.30;100.00
11542;BME280;5827;49.482;7.716;2022-09-14T06:50:15;97767.28;;;20.35;100.00
11542;BME280;5827;49.482;7.716;2022-09-14T06:52:17;97770.47;;;20.37;100.00
11542;BME280;5827;49.482;7.716;2022-09-14T06:54:20;97769.66;;;20.37;100.00
11542;BME280;5827;49.482;7.716;2022-09-14T06:56:21;97771.72;;;20.40;100.00
11542;BME280;5827;49.482;7.716;2022-09-14T06:58:22;97772.16;;;20.50;100.00
11542;BME280;5827;49.482;7.716;2022-09-14T07:00:24;97783.63;;;20.56;100.00
11542;BME280;5827;49.482;7.716;2022-09-14T07:02:26;97785.69;;;20.59;100.00
11542;BME280;5827;49.482;7.716;2022-09-14T07:04:27;97790.84;;;20.52;100.00
11542;BME280;5827;49.482;7.716;2022-09-14T07:06:32;97785.34;;;20.61;100.00
11542;BME280;5827;49.482;7.716;2022-09-14T07:08:34;97791.22;;;20.84;100.00
11542;BME280;5827;49.482;7.716;2022-09-14T07:10:37;97782.69;;;20.73;100.00
11542;BME280;5827;49.482;7.716;2022-09-14T07:12:38;97791.78;;;20.77;100.00
11542;BME280;5827;49.482;7.716;2022-09-14T07:14:40;97793.94;;;20.84;100.00
11542;BME280;5827;49.482;7.716;2022-09-14T07:16:41;97800.91;;;20.93;100.00
11542;BME280;5827;49.482;7.716;2022-09-14T07:18:43;97800.81;;;20.90;100.00
11542;BME280;5827;49.482;7.716;2022-09-14T07:20:44;97794.88;;;20.88;100.00
11542;BME280;5827;49.482;7.716;2022-09-14T07:22:46;97793.75;;;20.89;100.00
11542;BME280;5827;49.482;7.716;2022-09-14T07:24:47;97795.00;;;20.91;100.00
11542;BME280;5827;49.482;7.716;2022-09-14T07:26:51;97795.84;;;21.04;100.00
11542;BME280;5827;49.482;7.716;2022-09-14T07:28:54;97799.59;;;21.12;100.00
11542;BME280;5827;49.482;7.716;2022-09-14T07:30:56;97810.63;;;21.15;100.00
11542;BME280;5827;49.482;7.716;2022-09-14T07:32:57;97805.66;;;21.17;100.00
11542;BME280;5827;49.482;7.716;2022-09-14T07:34:59;97800.13;;;21.26;100.00
11542;BME280;5827;49.482;7.716;2022-09-14T07:37:00;97799.44;;;21.29;100.00
11542;BME280;5827;49.482;7.716;2022-09-14T07:39:03;97804.25;;;21.32;100.00
11542;BME280;5827;49.482;7.716;2022-09-14T07:41:05;97810.09;;;21.22;100.00
11542;BME280;5827;49.482;7.716;2022-09-14T07:43:08;97809.41;;;21.25;100.00
11542;BME280;5827;49.482;7.716;2022-09-14T07:45:10;97801.72;;;21.27;100.00
11542;BME280;5827;49.482;7.716;2022-09-14T07:47:11;97804.88;;;21.29;100.00
11542;BME280;5827;49.482;7.716;2022-09-14T07:49:14;97806.44;;;21.18;100.00
11542;BME280;5827;49.482;7.716;2022-09-14T07:51:16;97811.41;;;21.03;100.00
11542;BME280;5827;49.482;7.716;2022-09-14T07:53:18;97817.16;;;21.02;100.00
11542;BME280;5827;49.482;7.716;2022-09-14T07:55:19;97821.16;;;21.04;100.00
11542;BME280;5827;49.482;7.716;2022-09-14T07:57:20;97822.22;;;21.12;100.00
11542;BME280;5827;49.482;7.716;2022-09-14T07:59:23;97834.16;;;21.20;100.00
11542;BME280;5827;49.482;7.716;2022-09-14T08:01:25;97837.91;;;21.27;100.00
11542;BME280;5827;49.482;7.716;2022-09-14T08:03:29;97841.25;;;21.33;100.00
11542;BME280;5827;49.482;7.716;2022-09-14T08:05:30;97845.69;;;21.38;100.00
11542;BME280;5827;49.482;7.716;2022-09-14T08:07:32;97851.06;;;21.25;100.00
11542;BME280;5827;49.482;7.716;2022-09-14T08:09:33;97855.50;;;21.30;100.00
11542;BME280;5827;49.482;7.716;2022-09-14T08:11:35;97856.56;;;21.04;100.00
11542;BME280;5827;49.482;7.716;2022-09-14T08:13:39;97855.66;;;21.00;100.00
11542;BME280;5827;49.482;7.716;2022-09-14T08:15:42;97859.53;;;21.12;100.00
11542;BME280;5827;49.482;7.716;2022-09-14T08:17:44;97852.00;;;21.29;100.00
11542;BME280;5827;49.482;7.716;2022-09-14T08:19:46;97849.91;;;21.35;100.00
11542;BME280;5827;49.482;7.716;2022-09-14T08:21:47;97858.41;;;21.34;100.00
11542;BME280;5827;49.482;7.716;2022-09-14T08:23:49;97842.75;;;21.43;100.00
11542;BME280;5827;49.482;7.716;2022-09-14T08:25:50;97849.59;;;21.49;100.00
11542;BME280;5827;49.482;7.716;2022-09-14T08:27:52;97841.06;;;21.50;100.00
11542;BME280;5827;49.482;7.716;2022-09-14T08:29:53;97843.81;;;21.50;100.00
11542;BME280;5827;49.482;7.716;2022-09-14T08:31:56;97849.94;;;21.60;100.00
11542;BME280;5827;49.482;7.716;2022-09-14T08:34:00;97852.69;;;21.84;100.00
11542;BME280;5827;49.482;7.716;2022-09-14T08:36:03;97857.84;;;21.86;100.00
11542;BME280;5827;49.482;7.716;2022-09-14T08:38:04;97856.34;;;21.88;100.00
11542;BME280;5827;49.482;7.716;2022-09-14T08:40:07;97854.09;;;21.90;100.00
11542;BME280;5827;49.482;7.716;2022-09-14T08:42:13;97860.31;;;21.78;100.00
11542;BME280;5827;49.482;7.716;2022-09-14T08:44:19;97865.88;;;21.70;100.00
11542;BME280;5827;49.482;7.716;2022-09-14T08:46:27;97864.50;;;21.64;100.00
11542;BME280;5827;49.482;7.716;2022-09-14T08:48:36;97858.25;;;21.75;100.00
11542;BME280;5827;49.482;7.716;2022-09-14T08:50:41;97851.00;;;21.79;100.00
11542;BME280;5827;49.482;7.716;2022-09-14T08:52:45;97850.31;;;21.82;100.00
11542;BME280;5827;49.482;7.716;2022-09-14T08:54:48;97850.22;;;21.91;100.00
11542;BME280;5827;49.482;7.716;2022-09-14T08:56:54;97863.06;;;22.03;100.00
11542;BME280;5827;49.482;7.716;2022-09-14T08:59:16;97872.94;;;22.07;100.00
11542;BME280;5827;49.482;7.716;2022-09-14T09:01:25;97875.72;;;22.20;100.00
11542;BME280;5827;49.482;7.716;2022-09-14T09:03:42;97877.75;;;22.35;100.00
11542;BME280;5827;49.482;7.716;2022-09-14T09:05:52;97872.88;;;22.41;100.00
11542;BME280;5827;49.482;7.716;2022-09-14T09:07:58;97870.81;;;22.38;100.00
11542;BME280;5827;49.482;7.716;2022-09-14T09:10:03;97862.16;;;22.36;100.00
11542;BME280;5827;49.482;7.716;2022-09-14T09:12:05;97858.06;;;22.42;100.00
11542;BME280;5827;49.482;7.716;2022-09-14T09:14:15;97857.94;;;22.50;100.00
11542;BME280;5827;49.482;7.716;2022-09-14T09:16:19;97864.38;;;22.70;100.00
11542;BME280;5827;49.482;7.716;2022-09-14T09:18:31;97868.94;;;22.66;100.00
11542;BME280;5827;49.482;7.716;2022-09-14T09:20:39;97863.66;;;22.86;100.00
11542;BME280;5827;49.482;7.716;2022-09-14T09:23:00;97859.88;;;23.02;100.00
11542;BME280;5827;49.482;7.716;2022-09-14T09:25:13;97858.78;;;23.19;100.00
11542;BME280;5827;49.482;7.716;2022-09-14T09:27:16;97859.50;;;23.32;100.00
11542;BME280;5827;49.482;7.716;2022-09-14T09:29:17;97859.50;;;23.32;100.00
11542;BME280;5827;49.482;7.716;2022-09-14T09:31:28;97861.06;;;23.61;100.00
11542;BME280;5827;49.482;7.716;2022-09-14T09:33:32;97857.03;;;23.87;100.00
11542;BME280;5827;49.482;7.716;2022-09-14T09:35:34;97860.72;;;24.26;100.00
11542;BME280;5827;49.482;7.716;2022-09-14T09:37:38;97846.59;;;24.40;100.00
11542;BME280;5827;49.482;7.716;2022-09-14T09:39:40;97840.84;;;24.45;100.00
11542;BME280;5827;49.482;7.716;2022-09-14T09:41:44;97835.22;;;24.38;100.00
11542;BME280;5827;49.482;7.716;2022-09-14T09:43:57;97820.63;;;24.33;100.00
11542;BME280;5827;49.482;7.716;2022-09-14T09:46:01;97822.91;;;24.31;100.00
11542;BME280;5827;49.482;7.716;2022-09-14T09:48:08;97822.50;;;24.14;100.00
11542;BME280;5827;49.482;7.716;2022-09-14T09:50:17;97820.84;;;24.09;100.00
11542;BME280;5827;49.482;7.716;2022-09-14T09:52:19;97806.03;;;24.10;100.00
11542;BME280;5827;49.482;7.716;2022-09-14T09:54:27;97809.47;;;23.91;100.00
11542;BME280;5827;49.482;7.716;2022-09-14T09:56:31;97809.47;;;23.91;100.00
11542;BME280;5827;49.482;7.716;2022-09-14T09:58:36;97809.00;;;24.05;100.00
11542;BME280;5827;49.482;7.716;2022-09-14T10:00:37;97813.41;;;24.09;100.00
11542;BME280;5827;49.482;7.716;2022-09-14T10:02:39;97814.47;;;24.05;100.00
11542;BME280;5827;49.482;7.716;2022-09-14T10:04:55;97816.09;;;24.06;100.00
11542;BME280;5827;49.482;7.716;2022-09-14T10:06:57;97814.75;;;24.16;100.00
11542;BME280;5827;49.482;7.716;2022-09-14T10:08:59;97809.44;;;24.23;100.00
11542;BME280;5827;49.482;7.716;2022-09-14T10:11:02;97802.88;;;24.43;100.00
11542;BME280;5827;49.482;7.716;2022-09-14T10:13:05;97796.75;;;24.69;100.00
11542;BME280;5827;49.482;7.716;2022-09-14T10:15:16;97787.50;;;24.97;100.00
11542;BME280;5827;49.482;7.716;2022-09-14T10:17:21;97782.28;;;25.07;100.00
11542;BME280;5827;49.482;7.716;2022-09-14T10:19:24;97780.19;;;25.20;100.00
11542;BME280;5827;49.482;7.716;2022-09-14T10:21:28;97779.34;;;25.39;100.00
11542;BME280;5827;49.482;7.716;2022-09-14T10:23:33;97760.69;;;25.48;100.00
11542;BME280;5827;49.482;7.716;2022-09-14T10:25:36;97763.19;;;25.57;100.00
11542;BME280;5827;49.482;7.716;2022-09-14T10:27:44;97752.78;;;25.70;100.00
11542;BME280;5827;49.482;7.716;2022-09-14T10:29:49;97757.13;;;25.71;100.00
11542;BME280;5827;49.482;7.716;2022-09-14T10:32:00;97761.16;;;25.77;100.00
11542;BME280;5827;49.482;7.716;2022-09-14T10:34:11;97752.06;;;25.73;100.00
11542;BME280;5827;49.482;7.716;2022-09-14T10:36:20;97743.22;;;25.60;100.00
11542;BME280;5827;49.482;7.716;2022-09-14T10:38:35;97739.28;;;25.57;100.00
11542;BME280;5827;49.482;7.716;2022-09-14T10:40:42;97747.06;;;25.55;100.00
11542;BME280;5827;49.482;7.716;2022-09-14T10:42:57;97740.94;;;25.66;100.00
11542;BME280;5827;49.482;7.716;2022-09-14T10:45:10;97737.41;;;25.65;100.00
11542;BME280;5827;49.482;7.716;2022-09-14T10:47:35;97738.44;;;25.76;100.00
11542;BME280;5827;49.482;7.716;2022-09-14T10:49:48;97741.03;;;25.69;100.00
11542;BME280;5827;49.482;7.716;2022-09-14T10:51:58;97737.19;;;25.51;100.00
11542;BME280;5827;49.482;7.716;2022-09-14T10:54:12;97735.13;;;25.67;100.00
11542;BME280;5827;49.482;7.716;2022-09-14T10:56:18;97724.50;;;25.66;100.00
11542;BME280;5827;49.482;7.716;2022-09-14T10:58:34;97728.47;;;25.68;100.00